createdAt,value
2022-11-29T00:00:49.177Z,1727
2022-11-29T00:06:07.671Z,1747
2022-11-29T00:11:25.904Z,1727
2022-11-29T00:16:44.504Z,1730
2022-11-29T00:22:03.133Z,1755
2022-11-29T00:27:21.947Z,1777
2022-11-29T00:32:40.723Z,1797
2022-11-29T00:37:59.193Z,1817
2022-11-29T00:43:17.741Z,1858
2022-11-29T00:48:35.629Z,1903
2022-11-29T00:53:54.140Z,1896
2022-11-29T00:59:12.096Z,1843
2022-11-29T01:04:30.291Z,1844
2022-11-29T01:09:48.532Z,1835
2022-11-29T01:15:07.309Z,1879
2022-11-29T01:20:26.069Z,1865
2022-11-29T01:25:44.245Z,1854
2022-11-29T01:31:02.546Z,1844
2022-11-29T01:36:20.931Z,1832
2022-11-29T01:41:39.690Z,1838
2022-11-29T01:46:58.507Z,1826
2022-11-29T01:52:16.968Z,1813
2022-11-29T01:57:35.461Z,1753
2022-11-29T02:02:54.057Z,1723
2022-11-29T02:08:12.329Z,1711
2022-11-29T02:13:30.557Z,1718
2022-11-29T02:18:48.500Z,1726
2022-11-29T02:24:07.247Z,1749
2022-11-29T02:29:26.019Z,1734
2022-11-29T02:34:44.799Z,1740
2022-11-29T02:40:03.395Z,1752
2022-11-29T02:45:21.628Z,1756
2022-11-29T02:50:40.395Z,1722
2022-11-29T02:55:58.854Z,1691
2022-11-29T03:01:17.620Z,1689
2022-11-29T03:06:20.413Z,1719
2022-11-29T03:11:38.641Z,1717
2022-11-29T03:16:56.831Z,1691
2022-11-29T03:22:15.105Z,1678
2022-11-29T03:27:33.553Z,1673
2022-11-29T03:32:51.500Z,1695
2022-11-29T03:38:10.290Z,1701
2022-11-29T03:43:28.760Z,1700
2022-11-29T03:48:46.957Z,1702
2022-11-29T03:54:05.530Z,1693
2022-11-29T03:59:24.295Z,1692
2022-11-29T04:04:43.378Z,1696
2022-11-29T04:10:02.878Z,1717
2022-11-29T04:15:21.854Z,1696
2022-11-29T04:20:43.063Z,1687
2022-11-29T04:26:06.265Z,1705
2022-11-29T04:31:24.555Z,1679
2022-11-29T04:36:42.675Z,1651
2022-11-29T04:42:00.931Z,1643
2022-11-29T04:47:19.404Z,1634
2022-11-29T04:52:38.189Z,1634
2022-11-29T04:57:57.111Z,1684
2022-11-29T05:03:15.316Z,1723
2022-11-29T05:08:34.061Z,1663
2022-11-29T05:13:52.072Z,1653
2022-11-29T05:18:54.641Z,1671
2022-11-29T05:24:13.118Z,1664
2022-11-29T05:29:31.620Z,1594
2022-11-29T05:34:50.549Z,1533
2022-11-29T05:40:09.545Z,1553
2022-11-29T05:45:27.499Z,1563
2022-11-29T05:50:45.951Z,1578
2022-11-29T05:56:04.192Z,1576
2022-11-29T06:01:22.682Z,1580
2022-11-29T06:06:41.469Z,1597
2022-11-29T06:11:59.636Z,1608
2022-11-29T06:17:18.169Z,1591
2022-11-29T06:22:36.627Z,1593
2022-11-29T06:27:55.121Z,1577
2022-11-29T06:33:13.352Z,1596
2022-11-29T06:38:31.800Z,1595
2022-11-29T06:43:50.622Z,1590
2022-11-29T06:49:09.110Z,1580
2022-11-29T06:54:27.574Z,1559
2022-11-29T06:59:45.842Z,1547
2022-11-29T07:05:04.196Z,1527
2022-11-29T07:10:22.380Z,1521
2022-11-29T07:15:40.339Z,1512
2022-11-29T07:20:58.248Z,1504
2022-11-29T07:26:16.741Z,1499
2022-11-29T07:31:35.514Z,1502
2022-11-29T07:36:54.136Z,1502
2022-11-29T07:42:12.592Z,1486
2022-11-29T07:47:35.419Z,1474
2022-11-29T07:52:54.734Z,1474
2022-11-29T07:58:13.482Z,1464
2022-11-29T08:03:31.655Z,1465
2022-11-29T08:08:50.204Z,1455
2022-11-29T08:14:08.113Z,1455
2022-11-29T08:19:26.349Z,1453
2022-11-29T08:24:28.938Z,1450
2022-11-29T08:29:47.692Z,1444
2022-11-29T08:35:06.455Z,1429
2022-11-29T08:40:24.957Z,1425
2022-11-29T08:45:43.434Z,1398
2022-11-29T08:51:01.954Z,1392
2022-11-29T08:57:04.856Z,1447
2022-11-29T09:02:58.844Z,1444
2022-11-29T09:08:17.023Z,1436
2022-11-29T09:13:19.914Z,1431
2022-11-29T09:18:38.384Z,1428
2022-11-29T09:23:56.590Z,1429
2022-11-29T09:29:14.869Z,1425
2022-11-29T09:34:33.305Z,1424
2022-11-29T09:39:51.789Z,1425
2022-11-29T09:45:10.091Z,1412
2022-11-29T09:50:28.547Z,1412
2022-11-29T09:55:47.024Z,1411
2022-11-29T10:01:05.036Z,1415
2022-11-29T10:06:23.760Z,1415
2022-11-29T10:11:41.947Z,1417
2022-11-29T10:16:59.978Z,1412
2022-11-29T10:22:18.019Z,1404
2022-11-29T10:27:36.774Z,1389
2022-11-29T10:32:55.332Z,1380
2022-11-29T10:38:30.100Z,1369
2022-11-29T10:43:50.146Z,1359
2022-11-29T10:49:08.653Z,1347
2022-11-29T10:54:26.847Z,1341
2022-11-29T10:59:45.313Z,1334
2022-11-29T11:05:03.875Z,1370
2022-11-29T11:10:22.597Z,1349
2022-11-29T11:15:41.090Z,1324
2022-11-29T11:20:59.661Z,1301
2022-11-29T11:26:17.856Z,1290
2022-11-29T11:31:36.061Z,1278
2022-11-29T11:36:54.305Z,1273
2022-11-29T11:42:12.214Z,1264
2022-11-29T11:47:30.685Z,1254
2022-11-29T11:52:50.791Z,1247
2022-11-29T11:58:10.452Z,1246
2022-11-29T12:03:29.192Z,1261
2022-11-29T12:08:47.967Z,1255
2022-11-29T12:14:06.448Z,1247
2022-11-29T12:19:25.254Z,1242
2022-11-29T12:24:43.494Z,1234
2022-11-29T12:30:03.005Z,1169
2022-11-29T12:35:21.214Z,1156
2022-11-29T12:40:39.135Z,1156
2022-11-29T12:45:57.926Z,1160
2022-11-29T12:51:16.659Z,1166
2022-11-29T12:56:40.700Z,1168
2022-11-29T13:01:58.991Z,1176
2022-11-29T13:07:17.057Z,1174
2022-11-29T13:12:35.263Z,1181
2022-11-29T13:17:53.719Z,1181
2022-11-29T13:23:12.486Z,1204
2022-11-29T13:28:30.757Z,1212
2022-11-29T13:33:48.949Z,1214
2022-11-29T13:39:07.406Z,1213
2022-11-29T13:44:26.285Z,1212
2022-11-29T13:49:44.795Z,1213
2022-11-29T13:55:03.267Z,1218
2022-11-29T14:00:21.795Z,1226
2022-11-29T14:05:40.333Z,1230
2022-11-29T14:10:58.820Z,1232
2022-11-29T14:16:17.946Z,1233
2022-11-29T14:21:36.162Z,1232
2022-11-29T14:26:54.994Z,1239
2022-11-29T14:32:13.491Z,1232
2022-11-29T14:37:32.236Z,1234
2022-11-29T14:42:50.987Z,1244
2022-11-29T14:48:09.781Z,1253
2022-11-29T14:53:28.245Z,1260
2022-11-29T14:58:46.718Z,1246
2022-11-29T15:04:04.904Z,1239
2022-11-29T15:09:23.816Z,1226
2022-11-29T15:14:42.783Z,1231
2022-11-29T15:20:02.265Z,1244
2022-11-29T15:25:20.805Z,1231
2022-11-29T15:30:39.521Z,1220
2022-11-29T15:35:57.517Z,1213
2022-11-29T15:41:15.731Z,1202
2022-11-29T15:46:34.468Z,1195
2022-11-29T15:51:52.835Z,1185
2022-11-29T15:57:11.008Z,1175
2022-11-29T16:02:29.294Z,1171
2022-11-29T16:07:47.971Z,1170
2022-11-29T16:13:06.600Z,1182
2022-11-29T16:18:25.343Z,1179
2022-11-29T16:23:44.151Z,1183
2022-11-29T16:29:02.590Z,1186
2022-11-29T16:34:21.364Z,1186
2022-11-29T16:39:40.160Z,1179
2022-11-29T16:44:58.361Z,1178
2022-11-29T16:50:16.875Z,1174
2022-11-29T16:55:35.643Z,1180
2022-11-29T17:00:53.859Z,1177
2022-11-29T17:06:12.443Z,1172
2022-11-29T17:11:30.990Z,1177
2022-11-29T17:16:49.749Z,1177
2022-11-29T17:22:08.771Z,1182
2022-11-29T17:27:27.288Z,1183
2022-11-29T17:32:45.747Z,1183
2022-11-29T17:38:03.937Z,1189
2022-11-29T17:43:22.473Z,1192
2022-11-29T17:48:40.931Z,1203
2022-11-29T17:53:59.421Z,1230
2022-11-29T17:59:17.679Z,1242
2022-11-29T18:04:36.141Z,1294
2022-11-29T18:09:54.409Z,1348
2022-11-29T18:15:13.310Z,1370
2022-11-29T18:20:31.768Z,1406
2022-11-29T18:25:50.250Z,1431
2022-11-29T18:31:08.561Z,1431
2022-11-29T18:36:26.878Z,1432
2022-11-29T18:41:45.344Z,1430
2022-11-29T18:46:47.937Z,1446
2022-11-29T18:52:05.810Z,1450
2022-11-29T18:57:24.562Z,1444
2022-11-29T19:02:43.118Z,1439
2022-11-29T19:08:01.892Z,1440
2022-11-29T19:13:20.303Z,1438
2022-11-29T19:18:38.268Z,1442
2022-11-29T19:23:56.762Z,1438
2022-11-29T19:29:15.219Z,1442
2022-11-29T19:34:33.764Z,1450
2022-11-29T19:39:52.222Z,1458
2022-11-29T19:45:16.757Z,1467
2022-11-29T19:50:36.544Z,1462
2022-11-29T19:55:55.148Z,1472
2022-11-29T20:01:13.752Z,1472
2022-11-29T20:06:32.482Z,1470
2022-11-29T20:11:50.945Z,1466
2022-11-29T20:17:09.650Z,1474
2022-11-29T20:22:27.911Z,1464
2022-11-29T20:27:46.364Z,1465
2022-11-29T20:33:05.118Z,1499
2022-11-29T20:38:23.898Z,1494
2022-11-29T20:43:42.414Z,1491
2022-11-29T20:49:06.093Z,1491
2022-11-29T20:54:25.032Z,1494
2022-11-29T20:59:27.880Z,1493
2022-11-29T21:04:46.879Z,1496
2022-11-29T21:10:05.968Z,1522
2022-11-29T21:15:24.443Z,1533
2022-11-29T21:20:43.243Z,1532
2022-11-29T21:26:01.986Z,1537
2022-11-29T21:31:20.179Z,1501
2022-11-29T21:36:38.607Z,1520
2022-11-29T21:41:56.823Z,1661
2022-11-29T21:47:14.712Z,1726
2022-11-29T21:52:32.919Z,1742
2022-11-29T21:57:51.441Z,1770
2022-11-29T22:03:10.187Z,1736
2022-11-29T22:08:28.972Z,1726
2022-11-29T22:13:47.509Z,1698
2022-11-29T22:19:06.001Z,1682
2022-11-29T22:24:24.181Z,1677
2022-11-29T22:29:42.735Z,1664
2022-11-29T22:35:00.904Z,1658
2022-11-29T22:40:19.413Z,1647
2022-11-29T22:45:37.921Z,1642
2022-11-29T22:50:56.680Z,1638
2022-11-29T22:56:15.176Z,1627
2022-11-29T23:01:18.348Z,1625
2022-11-29T23:06:36.997Z,1623
2022-11-29T23:11:55.843Z,1617
2022-11-29T23:17:14.462Z,1605
2022-11-29T23:22:33.207Z,1600
2022-11-29T23:27:51.699Z,1602
2022-11-29T23:33:10.315Z,1592
2022-11-29T23:38:28.779Z,1591
2022-11-29T23:43:46.829Z,1584
2022-11-29T23:49:05.632Z,1585
2022-11-29T23:54:24.115Z,1579
2022-11-29T23:59:42.867Z,1577
